createdAt,value
2022-11-07T00:00:34.988Z,85.89
2022-11-07T00:01:34.997Z,85.89
2022-11-07T00:02:35.007Z,86.00
2022-11-07T00:03:34.933Z,86.10
2022-11-07T00:04:34.917Z,86.20
2022-11-07T00:05:34.989Z,86.30
2022-11-07T00:06:34.951Z,86.30
2022-11-07T00:07:34.977Z,86.41
2022-11-07T00:08:34.931Z,86.41
2022-11-07T00:09:34.877Z,86.30
2022-11-07T00:10:34.891Z,86.30
2022-11-07T00:11:34.886Z,86.20
2022-11-07T00:12:34.838Z,86.20
2022-11-07T00:13:34.883Z,86.20
2022-11-07T00:14:34.837Z,86.30
2022-11-07T00:15:34.832Z,86.41
2022-11-07T00:16:34.819Z,86.41
2022-11-07T00:17:34.806Z,86.61
2022-11-07T00:18:34.790Z,86.61
2022-11-07T00:19:34.774Z,86.71
2022-11-07T00:20:34.760Z,86.61
2022-11-07T00:21:34.742Z,86.51
2022-11-07T00:22:34.743Z,86.51
2022-11-07T00:23:34.709Z,86.61
2022-11-07T00:24:34.730Z,86.71
2022-11-07T00:25:34.706Z,86.71
2022-11-07T00:26:34.679Z,86.61
2022-11-07T00:27:34.787Z,86.61
2022-11-07T00:28:35.625Z,86.61
2022-11-07T00:29:34.676Z,86.61
2022-11-07T00:30:34.680Z,86.71
2022-11-07T00:31:34.619Z,86.71
2022-11-07T00:32:34.694Z,86.82
2022-11-07T00:33:34.627Z,86.91
2022-11-07T00:34:34.596Z,86.91
2022-11-07T00:35:34.587Z,86.82
2022-11-07T00:36:34.638Z,86.91
2022-11-07T00:37:35.531Z,86.91
2022-11-07T00:38:34.554Z,87.02
2022-11-07T00:39:34.528Z,87.23
2022-11-07T00:40:34.529Z,87.12
2022-11-07T00:41:34.513Z,87.12
2022-11-07T00:42:34.552Z,87.23
2022-11-07T00:43:34.502Z,87.23
2022-11-07T00:44:34.484Z,87.12
2022-11-07T00:45:34.460Z,87.23
2022-11-07T00:46:34.481Z,87.23
2022-11-07T00:47:34.484Z,87.12
2022-11-07T00:48:34.469Z,86.88
2022-11-07T00:49:34.463Z,86.77
2022-11-07T00:50:34.433Z,86.67
2022-11-07T00:51:34.402Z,86.77
2022-11-07T00:52:34.411Z,86.67
2022-11-07T00:53:34.399Z,86.47
2022-11-07T00:54:34.392Z,86.47
2022-11-07T00:55:34.448Z,86.47
2022-11-07T00:56:34.333Z,86.57
2022-11-07T00:57:35.282Z,86.57
2022-11-07T00:58:34.335Z,86.47
2022-11-07T00:59:34.345Z,86.47
2022-11-07T01:00:34.384Z,86.57
2022-11-07T01:01:34.435Z,86.57
2022-11-07T01:02:34.431Z,86.57
2022-11-07T01:03:34.279Z,86.57
2022-11-07T01:04:34.315Z,86.57
2022-11-07T01:05:34.235Z,86.57
2022-11-07T01:06:34.252Z,86.57
2022-11-07T01:07:34.225Z,86.57
2022-11-07T01:08:35.156Z,86.57
2022-11-07T01:09:34.212Z,86.67
2022-11-07T01:10:34.227Z,86.67
2022-11-07T01:11:34.175Z,86.67
2022-11-07T01:12:34.181Z,86.67
2022-11-07T01:13:34.186Z,86.77
2022-11-07T01:14:34.149Z,86.61
2022-11-07T01:15:34.149Z,86.61
2022-11-07T01:16:34.119Z,86.71
2022-11-07T01:17:35.101Z,86.82
2022-11-07T01:18:34.098Z,86.71
2022-11-07T01:19:34.080Z,86.82
2022-11-07T01:20:34.080Z,86.91
2022-11-07T01:21:34.091Z,86.91
2022-11-07T01:22:34.078Z,86.71
2022-11-07T01:23:34.047Z,86.71
2022-11-07T01:24:34.024Z,86.71
2022-11-07T01:25:34.013Z,86.71
2022-11-07T01:26:34.011Z,86.71
2022-11-07T01:27:34.012Z,86.61
2022-11-07T01:28:34.030Z,86.71
2022-11-07T01:29:33.978Z,86.71
2022-11-07T01:30:33.990Z,86.71
2022-11-07T01:31:33.975Z,86.71
2022-11-07T01:32:33.976Z,86.61
2022-11-07T01:33:33.973Z,86.61
2022-11-07T01:34:33.916Z,86.71
2022-11-07T01:35:33.923Z,86.61
2022-11-07T01:36:33.894Z,86.71
2022-11-07T01:37:33.892Z,86.91
2022-11-07T01:38:33.923Z,86.91
2022-11-07T01:39:33.887Z,86.91
2022-11-07T01:40:33.873Z,86.91
2022-11-07T01:41:33.854Z,87.06
2022-11-07T01:42:33.857Z,87.16
2022-11-07T01:43:33.805Z,87.26
2022-11-07T01:44:33.828Z,87.16
2022-11-07T01:45:33.835Z,87.06
2022-11-07T01:46:33.795Z,87.06
2022-11-07T01:47:33.784Z,87.16
2022-11-07T01:48:33.765Z,87.16
2022-11-07T01:49:33.779Z,87.26
2022-11-07T01:50:33.771Z,87.37
2022-11-07T01:51:33.777Z,87.37
2022-11-07T01:52:33.770Z,87.57
2022-11-07T01:53:33.748Z,87.67
2022-11-07T01:54:33.686Z,87.71
2022-11-07T01:55:33.736Z,87.71
2022-11-07T01:56:33.664Z,87.82
2022-11-07T01:57:33.654Z,87.92
2022-11-07T01:58:33.638Z,88.02
2022-11-07T01:59:33.632Z,88.12
2022-11-07T02:00:33.620Z,88.12
2022-11-07T02:01:33.774Z,88.33
2022-11-07T02:02:33.751Z,88.33
2022-11-07T02:03:33.641Z,88.23
2022-11-07T02:04:33.589Z,88.26
2022-11-07T02:05:33.565Z,88.37
2022-11-07T02:06:33.580Z,88.47
2022-11-07T02:07:33.576Z,88.47
2022-11-07T02:08:33.622Z,88.57
2022-11-07T02:09:33.541Z,88.57
2022-11-07T02:10:33.550Z,88.57
2022-11-07T02:11:33.522Z,88.68
2022-11-07T02:12:33.489Z,88.68
2022-11-07T02:13:33.487Z,88.68
2022-11-07T02:14:33.490Z,88.68
2022-11-07T02:15:33.493Z,88.78
2022-11-07T02:16:33.452Z,88.78
2022-11-07T02:17:33.442Z,88.88
2022-11-07T02:18:33.418Z,88.88
2022-11-07T02:19:33.423Z,88.88
2022-11-07T02:20:33.394Z,88.98
2022-11-07T02:21:33.414Z,88.98
2022-11-07T02:22:33.382Z,88.98
2022-11-07T02:23:33.374Z,88.98
2022-11-07T02:24:33.402Z,89.09
2022-11-07T02:25:33.351Z,89.09
2022-11-07T02:26:33.335Z,89.29
2022-11-07T02:27:33.334Z,89.29
2022-11-07T02:28:33.315Z,89.39
2022-11-07T02:29:33.328Z,89.39
2022-11-07T02:30:33.407Z,89.39
2022-11-07T02:31:33.376Z,89.50
2022-11-07T02:32:33.264Z,89.59
2022-11-07T02:33:33.274Z,89.70
2022-11-07T02:34:33.259Z,89.70
2022-11-07T02:35:33.267Z,89.80
2022-11-07T02:36:33.226Z,89.90
2022-11-07T02:37:33.218Z,89.90
2022-11-07T02:38:33.194Z,89.90
2022-11-07T02:39:33.247Z,89.90
2022-11-07T02:40:33.230Z,89.90
2022-11-07T02:41:33.187Z,89.90
2022-11-07T02:42:33.208Z,89.80
2022-11-07T02:43:33.157Z,89.80
2022-11-07T02:44:33.137Z,89.90
2022-11-07T02:45:33.134Z,89.90
2022-11-07T02:46:33.108Z,89.90
2022-11-07T02:47:33.120Z,89.76
2022-11-07T02:48:33.139Z,89.65
2022-11-07T02:49:33.101Z,89.65
2022-11-07T02:50:33.133Z,89.65
2022-11-07T02:51:33.060Z,89.65
2022-11-07T02:52:33.093Z,89.65
2022-11-07T02:53:33.042Z,89.70
2022-11-07T02:54:33.026Z,89.70
2022-11-07T02:55:33.002Z,89.80
2022-11-07T02:56:33.017Z,89.80
2022-11-07T02:57:33.003Z,89.80
2022-11-07T02:58:33.003Z,89.80
2022-11-07T02:59:32.988Z,89.80
2022-11-07T03:00:33.004Z,89.80
2022-11-07T03:01:33.045Z,89.80
2022-11-07T03:02:33.052Z,89.80
2022-11-07T03:03:32.946Z,89.80
2022-11-07T03:04:32.943Z,89.80
2022-11-07T03:05:32.906Z,89.90
2022-11-07T03:06:32.890Z,89.90
2022-11-07T03:07:32.918Z,89.90
2022-11-07T03:08:32.875Z,90.00
2022-11-07T03:09:32.875Z,90.00
2022-11-07T03:10:32.886Z,90.11
2022-11-07T03:11:32.867Z,90.11
2022-11-07T03:12:32.821Z,90.11
2022-11-07T03:13:32.807Z,90.21
2022-11-07T03:14:32.856Z,90.21
2022-11-07T03:15:32.789Z,90.21
2022-11-07T03:16:32.802Z,90.31
2022-11-07T03:17:32.792Z,90.31
2022-11-07T03:18:32.754Z,90.41
2022-11-07T03:19:32.807Z,90.41
2022-11-07T03:20:32.734Z,90.41
2022-11-07T03:21:32.714Z,90.41
2022-11-07T03:22:32.722Z,90.41
2022-11-07T03:23:32.702Z,90.41
2022-11-07T03:24:32.695Z,90.52
2022-11-07T03:25:32.692Z,90.52
2022-11-07T03:26:32.706Z,90.52
2022-11-07T03:27:32.660Z,90.52
2022-11-07T03:28:32.754Z,90.62
2022-11-07T03:29:32.625Z,90.66
2022-11-07T03:30:32.612Z,90.77
2022-11-07T03:31:32.620Z,90.77
2022-11-07T03:32:32.592Z,90.77
2022-11-07T03:33:32.647Z,90.66
2022-11-07T03:34:32.574Z,90.77
2022-11-07T03:35:32.591Z,90.66
2022-11-07T03:36:32.550Z,90.77
2022-11-07T03:37:32.554Z,90.77
2022-11-07T03:38:32.538Z,90.86
2022-11-07T03:39:32.560Z,90.77
2022-11-07T03:40:32.507Z,90.86
2022-11-07T03:41:32.523Z,90.86
2022-11-07T03:42:32.504Z,90.86
2022-11-07T03:43:32.477Z,90.86
2022-11-07T03:44:32.446Z,90.86
2022-11-07T03:45:32.489Z,90.86
2022-11-07T03:46:32.486Z,90.86
2022-11-07T03:47:32.433Z,90.86
2022-11-07T03:48:32.463Z,90.86
2022-11-07T03:49:32.434Z,90.97
2022-11-07T03:50:32.427Z,91.01
2022-11-07T03:51:32.396Z,91.01
2022-11-07T03:52:32.385Z,91.11
2022-11-07T03:53:32.503Z,91.11
2022-11-07T03:54:32.376Z,91.22
2022-11-07T03:55:32.345Z,91.22
2022-11-07T03:56:32.365Z,91.11
2022-11-07T03:57:32.328Z,91.11
2022-11-07T03:58:32.339Z,91.01
2022-11-07T03:59:32.373Z,91.11
2022-11-07T04:00:32.313Z,91.11
2022-11-07T04:01:32.464Z,91.11
2022-11-07T04:02:32.390Z,91.11
2022-11-07T04:03:32.255Z,91.01
2022-11-07T04:04:32.237Z,91.11
2022-11-07T04:05:32.234Z,91.11
2022-11-07T04:06:32.216Z,91.11
2022-11-07T04:07:32.221Z,91.22
2022-11-07T04:08:32.185Z,91.26
2022-11-07T04:09:32.200Z,91.26
2022-11-07T04:10:32.224Z,91.36
2022-11-07T04:11:32.152Z,91.36
2022-11-07T04:12:32.133Z,91.46
2022-11-07T04:13:32.131Z,91.56
2022-11-07T04:14:32.121Z,91.56
2022-11-07T04:15:32.144Z,91.56
2022-11-07T04:16:32.150Z,91.67
2022-11-07T04:17:32.105Z,91.56
2022-11-07T04:18:32.089Z,91.56
2022-11-07T04:19:32.072Z,91.56
2022-11-07T04:20:32.082Z,91.67
2022-11-07T04:21:32.086Z,91.67
2022-11-07T04:22:32.065Z,91.67
2022-11-07T04:23:32.045Z,91.67
2022-11-07T04:24:32.016Z,91.67
2022-11-07T04:25:32.025Z,91.67
2022-11-07T04:26:32.000Z,91.77
2022-11-07T04:27:31.974Z,91.77
2022-11-07T04:28:31.972Z,91.77
2022-11-07T04:29:31.989Z,91.87
2022-11-07T04:30:31.970Z,91.87
2022-11-07T04:31:31.930Z,91.87
2022-11-07T04:32:31.938Z,91.87
2022-11-07T04:33:31.908Z,91.87
2022-11-07T04:34:31.928Z,91.97
2022-11-07T04:35:31.890Z,91.97
2022-11-07T04:36:31.860Z,91.97
2022-11-07T04:37:31.886Z,91.97
2022-11-07T04:38:31.847Z,91.87
2022-11-07T04:39:32.057Z,91.97
2022-11-07T04:40:31.865Z,91.87
2022-11-07T04:41:31.828Z,91.97
2022-11-07T04:42:31.828Z,91.87
2022-11-07T04:43:31.804Z,91.87
2022-11-07T04:44:31.811Z,91.77
2022-11-07T04:45:31.815Z,91.77
2022-11-07T04:46:31.779Z,91.87
2022-11-07T04:47:34.231Z,91.87
2022-11-07T04:48:31.730Z,91.97
2022-11-07T04:49:31.759Z,91.97
2022-11-07T04:50:31.730Z,91.97
2022-11-07T04:51:31.761Z,91.97
2022-11-07T04:52:31.703Z,91.87
2022-11-07T04:53:31.685Z,91.87
2022-11-07T04:54:31.671Z,91.77
2022-11-07T04:55:31.672Z,91.67
2022-11-07T04:56:34.448Z,91.67
2022-11-07T04:57:31.651Z,91.67
2022-11-07T04:58:31.666Z,91.67
2022-11-07T04:59:31.653Z,91.56
2022-11-07T05:00:31.741Z,91.67
2022-11-07T05:01:31.645Z,91.67
2022-11-07T05:02:32.692Z,91.56
2022-11-07T05:03:31.650Z,91.67
2022-11-07T05:04:31.608Z,91.67
2022-11-07T05:05:31.577Z,91.67
2022-11-07T05:06:31.564Z,91.56
2022-11-07T05:07:31.565Z,91.56
2022-11-07T05:08:31.590Z,91.46
2022-11-07T05:09:31.530Z,91.46
2022-11-07T05:10:31.519Z,91.46
2022-11-07T05:11:31.515Z,91.46
2022-11-07T05:12:31.506Z,91.46
2022-11-07T05:13:32.498Z,91.36
2022-11-07T05:14:31.516Z,91.31
2022-11-07T05:15:31.471Z,91.36
2022-11-07T05:16:31.485Z,91.36
2022-11-07T05:17:31.435Z,91.36
2022-11-07T05:18:31.405Z,91.36
2022-11-07T05:19:31.395Z,91.36
2022-11-07T05:20:31.409Z,91.36
2022-11-07T05:21:31.413Z,91.36
2022-11-07T05:22:31.408Z,91.26
2022-11-07T05:23:31.358Z,91.26
2022-11-07T05:24:31.339Z,91.36
2022-11-07T05:25:31.335Z,91.36
2022-11-07T05:26:31.338Z,91.36
2022-11-07T05:27:31.298Z,91.26
2022-11-07T05:28:38.217Z,91.22
2022-11-07T05:29:32.343Z,91.22
2022-11-07T05:30:31.299Z,91.11
2022-11-07T05:31:31.262Z,91.11
2022-11-07T05:32:31.285Z,91.11
2022-11-07T05:33:31.240Z,91.16
2022-11-07T05:34:31.259Z,91.16
2022-11-07T05:35:31.222Z,91.16
2022-11-07T05:36:31.204Z,91.16
2022-11-07T05:37:31.310Z,91.05
2022-11-07T05:38:31.198Z,91.16
2022-11-07T05:39:31.191Z,91.16
2022-11-07T05:40:31.163Z,91.16
2022-11-07T05:41:32.104Z,91.26
2022-11-07T05:42:31.122Z,91.26
2022-11-07T05:43:31.188Z,91.16
2022-11-07T05:44:31.160Z,91.16
2022-11-07T05:45:32.080Z,91.16
2022-11-07T05:46:31.140Z,91.05
2022-11-07T05:47:31.088Z,91.05
2022-11-07T05:48:31.083Z,91.16
2022-11-07T05:49:31.089Z,91.05
2022-11-07T05:50:31.077Z,91.16
2022-11-07T05:51:31.058Z,91.16
2022-11-07T05:52:31.042Z,91.16
2022-11-07T05:53:31.071Z,91.05
2022-11-07T05:54:31.007Z,91.05
2022-11-07T05:55:30.991Z,91.05
2022-11-07T05:56:30.975Z,91.16
2022-11-07T05:57:30.952Z,91.26
2022-11-07T05:58:30.976Z,91.26
2022-11-07T05:59:30.934Z,91.26
2022-11-07T06:00:30.964Z,91.26
2022-11-07T06:01:31.061Z,91.26
2022-11-07T06:02:31.010Z,91.16
2022-11-07T06:03:30.982Z,91.26
2022-11-07T06:04:30.893Z,91.26
2022-11-07T06:05:30.889Z,91.26
2022-11-07T06:06:30.904Z,91.36
2022-11-07T06:07:30.850Z,91.36
2022-11-07T06:08:30.843Z,91.26
2022-11-07T06:09:30.847Z,91.26
2022-11-07T06:10:30.829Z,91.16
2022-11-07T06:11:30.847Z,91.11
2022-11-07T06:12:30.802Z,91.11
2022-11-07T06:13:30.781Z,91.11
2022-11-07T06:14:30.793Z,91.11
2022-11-07T06:15:30.751Z,91.01
2022-11-07T06:16:30.763Z,91.01
2022-11-07T06:17:30.763Z,90.91
2022-11-07T06:18:30.730Z,90.81
2022-11-07T06:19:30.726Z,90.70
2022-11-07T06:20:30.728Z,90.66
2022-11-07T06:21:30.701Z,90.56
2022-11-07T06:22:30.693Z,90.45
2022-11-07T06:23:30.667Z,90.25
2022-11-07T06:24:30.711Z,90.25
2022-11-07T06:25:30.673Z,90.25
2022-11-07T06:26:30.674Z,90.15
2022-11-07T06:27:30.675Z,90.05
2022-11-07T06:28:30.618Z,89.90
2022-11-07T06:29:30.708Z,89.90
2022-11-07T06:30:31.583Z,89.90
2022-11-07T06:31:30.604Z,89.90
2022-11-07T06:32:30.568Z,89.80
2022-11-07T06:33:30.577Z,89.70
2022-11-07T06:34:30.544Z,89.59
2022-11-07T06:35:30.535Z,89.39
2022-11-07T06:36:30.532Z,89.25
2022-11-07T06:37:30.506Z,89.15
2022-11-07T06:38:30.574Z,89.04
2022-11-07T06:39:30.501Z,89.04
2022-11-07T06:40:30.596Z,88.94
2022-11-07T06:41:30.466Z,88.94
2022-11-07T06:42:30.471Z,88.74
2022-11-07T06:43:33.704Z,88.64
2022-11-07T06:44:30.464Z,88.59
2022-11-07T06:45:30.540Z,88.49
2022-11-07T06:46:30.471Z,88.49
2022-11-07T06:47:30.409Z,88.59
2022-11-07T06:48:30.398Z,88.59
2022-11-07T06:49:30.393Z,88.59
2022-11-07T06:50:30.377Z,88.49
2022-11-07T06:51:30.377Z,88.49
2022-11-07T06:52:30.333Z,88.59
2022-11-07T06:53:30.340Z,88.45
2022-11-07T06:54:30.317Z,88.55
2022-11-07T06:55:30.315Z,88.35
2022-11-07T06:56:30.341Z,88.35
2022-11-07T06:57:30.290Z,88.14
2022-11-07T06:58:30.287Z,88.04
2022-11-07T06:59:30.316Z,87.94
2022-11-07T07:00:30.345Z,87.73
2022-11-07T07:01:30.366Z,87.63
2022-11-07T07:02:56.890Z,87.63
2022-11-07T07:03:31.242Z,87.63
2022-11-07T07:04:30.257Z,87.63
2022-11-07T07:05:30.207Z,87.63
2022-11-07T07:06:30.190Z,87.63
2022-11-07T07:07:30.223Z,87.63
2022-11-07T07:08:30.200Z,87.63
2022-11-07T07:09:30.325Z,87.63
2022-11-07T07:10:30.269Z,87.59
2022-11-07T07:11:30.161Z,87.63
2022-11-07T07:12:30.175Z,87.59
2022-11-07T07:13:30.108Z,87.59
2022-11-07T07:14:30.099Z,87.59
2022-11-07T07:15:38.588Z,87.59
2022-11-07T07:16:31.129Z,87.59
2022-11-07T07:17:30.065Z,87.49
2022-11-07T07:18:30.097Z,87.49
2022-11-07T07:19:30.165Z,87.49
2022-11-07T07:20:30.087Z,87.59
2022-11-07T07:21:30.036Z,87.49
2022-11-07T07:22:30.036Z,87.49
2022-11-07T07:23:29.999Z,87.49
2022-11-07T07:24:30.032Z,87.49
2022-11-07T07:25:29.978Z,87.45
2022-11-07T07:26:29.971Z,87.35
2022-11-07T07:27:29.949Z,87.24
2022-11-07T07:28:29.949Z,87.24
2022-11-07T07:29:29.932Z,87.14
2022-11-07T07:30:30.037Z,87.04
2022-11-07T07:31:29.941Z,86.94
2022-11-07T07:32:29.919Z,86.83
2022-11-07T07:33:29.895Z,86.73
2022-11-07T07:34:29.911Z,86.83
2022-11-07T07:35:30.119Z,86.83
2022-11-07T07:36:29.884Z,86.94
2022-11-07T07:37:29.837Z,86.80
2022-11-07T07:38:29.831Z,86.69
2022-11-07T07:39:29.815Z,86.59
2022-11-07T07:40:29.840Z,86.49
2022-11-07T07:41:29.804Z,86.49
2022-11-07T07:42:29.802Z,86.39
2022-11-07T07:43:29.784Z,86.29
2022-11-07T07:44:29.761Z,86.29
2022-11-07T07:45:29.775Z,86.08
2022-11-07T07:46:29.783Z,85.94
2022-11-07T07:47:29.719Z,86.04
2022-11-07T07:48:30.690Z,86.04
2022-11-07T07:49:29.705Z,85.94
2022-11-07T07:50:29.719Z,85.84
2022-11-07T07:51:29.692Z,85.63
2022-11-07T07:52:29.704Z,85.63
2022-11-07T07:53:29.660Z,85.63
2022-11-07T07:54:29.666Z,85.49
2022-11-07T07:55:29.635Z,85.39
2022-11-07T07:56:29.667Z,85.49
2022-11-07T07:57:29.629Z,85.39
2022-11-07T07:58:29.611Z,85.39
2022-11-07T07:59:29.595Z,85.39
2022-11-07T08:00:29.623Z,85.28
2022-11-07T08:01:29.719Z,85.28
2022-11-07T08:02:29.644Z,85.19
2022-11-07T08:03:50.683Z,85.28
2022-11-07T08:04:30.531Z,85.28
2022-11-07T08:05:29.518Z,85.14
2022-11-07T08:06:29.545Z,85.14
2022-11-07T08:07:29.489Z,85.25
2022-11-07T08:08:33.845Z,85.14
2022-11-07T08:09:30.474Z,85.14
2022-11-07T08:10:44.962Z,85.14
2022-11-07T08:11:30.484Z,85.14
2022-11-07T08:12:29.460Z,85.25
2022-11-07T08:13:29.460Z,85.35
2022-11-07T08:14:29.445Z,85.25
2022-11-07T08:15:29.486Z,85.35
2022-11-07T08:16:29.423Z,85.35
2022-11-07T08:17:29.445Z,85.35
2022-11-07T08:18:29.388Z,85.35
2022-11-07T08:19:29.363Z,85.35
2022-11-07T08:20:30.051Z,85.45
2022-11-07T08:21:29.386Z,85.45
2022-11-07T08:22:29.324Z,85.45
2022-11-07T08:23:29.330Z,85.45
2022-11-07T08:24:29.304Z,85.45
2022-11-07T08:25:29.314Z,85.55
2022-11-07T08:26:29.292Z,85.55
2022-11-07T08:27:29.285Z,85.55
2022-11-07T08:28:30.222Z,85.51
2022-11-07T08:29:29.304Z,85.61
2022-11-07T08:30:29.267Z,85.61
2022-11-07T08:31:29.286Z,85.51
2022-11-07T08:32:29.236Z,85.61
2022-11-07T08:33:29.325Z,85.61
2022-11-07T08:34:29.206Z,85.72
2022-11-07T08:35:29.253Z,85.61
2022-11-07T08:36:29.281Z,85.61
2022-11-07T08:37:29.172Z,85.61
2022-11-07T08:38:29.158Z,85.72
2022-11-07T08:39:29.151Z,85.72
2022-11-07T08:40:29.191Z,85.72
2022-11-07T08:41:29.109Z,85.72
2022-11-07T08:42:29.109Z,85.61
2022-11-07T08:43:29.101Z,85.61
2022-11-07T08:44:29.092Z,85.72
2022-11-07T08:45:29.077Z,85.82
2022-11-07T08:46:29.088Z,85.72
2022-11-07T08:47:29.066Z,85.72
2022-11-07T08:48:29.102Z,85.72
2022-11-07T08:49:29.057Z,85.61
2022-11-07T08:50:29.024Z,85.61
2022-11-07T08:51:29.030Z,85.61
2022-11-07T08:52:29.059Z,85.61
2022-11-07T08:53:29.046Z,85.61
2022-11-07T08:54:29.022Z,85.61
2022-11-07T08:55:28.973Z,85.68
2022-11-07T08:56:29.937Z,85.68
2022-11-07T08:57:28.971Z,85.47
2022-11-07T08:58:30.387Z,85.27
2022-11-07T08:59:28.985Z,85.27
2022-11-07T09:00:28.963Z,85.27
2022-11-07T09:01:29.103Z,85.27
2022-11-07T09:03:45.120Z,84.97
2022-11-07T09:04:29.915Z,84.97
2022-11-07T09:05:28.875Z,84.82
2022-11-07T09:06:28.850Z,84.82
2022-11-07T09:07:28.860Z,85.03
2022-11-07T09:08:28.855Z,84.82
2022-11-07T09:09:29.623Z,84.62
2022-11-07T09:10:28.817Z,84.72
2022-11-07T09:11:28.822Z,84.62
2022-11-07T09:12:28.827Z,84.52
2022-11-07T09:13:28.817Z,84.62
2022-11-07T09:14:28.764Z,84.42
2022-11-07T09:15:28.760Z,84.42
2022-11-07T09:16:28.736Z,84.52
2022-11-07T09:17:28.715Z,84.42
2022-11-07T09:18:28.704Z,84.28
2022-11-07T09:19:28.775Z,84.17
2022-11-07T09:20:28.691Z,84.17
2022-11-07T09:21:28.681Z,84.17
2022-11-07T09:22:28.698Z,84.17
2022-11-07T09:23:28.669Z,84.17
2022-11-07T09:24:28.704Z,83.97
2022-11-07T09:25:28.650Z,83.97
2022-11-07T09:26:28.640Z,83.97
2022-11-07T09:27:28.611Z,83.76
2022-11-07T09:28:28.688Z,83.76
2022-11-07T09:29:28.671Z,83.87
2022-11-07T09:30:28.758Z,83.97
2022-11-07T09:31:28.579Z,83.87
2022-11-07T09:32:44.678Z,83.87
2022-11-07T09:33:29.596Z,83.76
2022-11-07T09:34:28.623Z,83.87
2022-11-07T09:35:28.836Z,83.76
2022-11-07T09:36:28.514Z,83.87
2022-11-07T09:37:28.938Z,84.07
2022-11-07T09:38:28.507Z,84.07
2022-11-07T09:39:28.475Z,84.07
2022-11-07T09:40:28.730Z,84.07
2022-11-07T09:41:29.374Z,83.97
2022-11-07T09:42:28.496Z,83.97
2022-11-07T09:43:28.515Z,83.97
2022-11-07T09:44:32.389Z,83.97
2022-11-07T09:45:29.405Z,84.07
2022-11-07T09:46:28.381Z,84.07
2022-11-07T09:47:28.402Z,84.07
2022-11-07T09:48:28.377Z,84.07
2022-11-07T09:49:28.417Z,84.07
2022-11-07T09:50:28.344Z,84.17
2022-11-07T09:51:28.336Z,84.17
2022-11-07T09:52:28.345Z,84.28
2022-11-07T09:53:28.309Z,84.58
2022-11-07T09:54:28.382Z,84.68
2022-11-07T09:55:28.326Z,84.78
2022-11-07T09:56:28.329Z,85.09
2022-11-07T09:57:28.378Z,85.19
2022-11-07T09:58:28.252Z,85.29
2022-11-07T09:59:28.615Z,85.39
2022-11-07T10:00:29.203Z,85.60
2022-11-07T10:01:28.336Z,85.70
2022-11-07T10:02:29.702Z,85.90
2022-11-07T10:03:28.227Z,86.10
2022-11-07T10:04:28.367Z,86.21
2022-11-07T10:05:28.424Z,86.41
2022-11-07T10:06:28.971Z,86.51
2022-11-07T10:07:28.152Z,86.82
2022-11-07T10:08:28.136Z,87.06
2022-11-07T10:09:28.154Z,87.16
2022-11-07T10:10:28.114Z,87.47
2022-11-07T10:11:28.164Z,87.57
2022-11-07T10:12:28.089Z,87.67
2022-11-07T10:13:28.162Z,87.77
2022-11-07T10:14:28.443Z,87.87
2022-11-07T10:15:28.067Z,87.98
2022-11-07T10:16:28.390Z,88.08
2022-11-07T10:17:28.027Z,88.28
2022-11-07T10:18:28.067Z,88.39
2022-11-07T10:19:28.069Z,88.28
2022-11-07T10:20:28.005Z,88.39
2022-11-07T10:21:37.769Z,88.39
2022-11-07T10:22:29.005Z,88.59
2022-11-07T10:23:27.984Z,88.69
2022-11-07T10:24:27.976Z,88.89
2022-11-07T10:25:27.948Z,89.00
2022-11-07T10:26:27.950Z,89.09
2022-11-07T10:27:27.970Z,89.20
2022-11-07T10:28:27.940Z,89.20
2022-11-07T10:29:27.926Z,89.30
2022-11-07T10:30:27.913Z,89.40
2022-11-07T10:31:27.877Z,89.30
2022-11-07T10:32:27.870Z,89.30
2022-11-07T10:33:27.890Z,89.40
2022-11-07T10:34:27.892Z,89.40
2022-11-07T10:35:27.865Z,89.30
2022-11-07T10:36:27.819Z,89.20
2022-11-07T10:37:27.801Z,89.30
2022-11-07T10:38:27.796Z,89.20
2022-11-07T10:39:27.802Z,89.30
2022-11-07T10:40:27.812Z,89.20
2022-11-07T10:41:27.788Z,89.30
2022-11-07T10:42:27.753Z,89.26
2022-11-07T10:43:27.743Z,89.26
2022-11-07T10:44:27.975Z,89.26
2022-11-07T10:45:27.728Z,89.15
2022-11-07T10:46:27.714Z,89.05
2022-11-07T10:47:29.154Z,88.95
2022-11-07T10:48:28.250Z,88.95
2022-11-07T10:49:27.682Z,89.05
2022-11-07T10:50:27.689Z,88.95
2022-11-07T10:51:27.645Z,88.85
2022-11-07T10:52:27.642Z,88.85
2022-11-07T10:53:27.660Z,88.85
2022-11-07T10:54:28.170Z,88.85
2022-11-07T10:55:27.632Z,88.85
2022-11-07T10:56:29.577Z,88.85
2022-11-07T10:57:27.584Z,88.85
2022-11-07T10:58:27.586Z,88.85
2022-11-07T10:59:32.955Z,88.85
2022-11-07T11:00:28.554Z,88.75
2022-11-07T11:01:27.703Z,88.75
2022-11-07T11:02:27.529Z,88.65
2022-11-07T11:03:41.824Z,88.54
2022-11-07T11:04:28.529Z,88.34
2022-11-07T11:05:27.542Z,88.34
2022-11-07T11:06:27.474Z,88.24
2022-11-07T11:07:28.724Z,88.24
2022-11-07T11:08:27.461Z,88.04
2022-11-07T11:09:27.471Z,88.04
2022-11-07T11:10:27.434Z,88.24
2022-11-07T11:11:27.433Z,88.24
2022-11-07T11:12:27.481Z,88.20
2022-11-07T11:13:27.400Z,88.20
2022-11-07T11:14:27.606Z,88.10
2022-11-07T11:15:31.400Z,87.99
2022-11-07T11:16:29.845Z,87.89
2022-11-07T11:17:27.424Z,87.89
2022-11-07T11:18:27.347Z,87.99
2022-11-07T11:19:27.446Z,87.59
2022-11-07T11:20:27.326Z,87.49
2022-11-07T11:21:27.319Z,87.18
2022-11-07T11:22:27.304Z,86.88
2022-11-07T11:23:27.301Z,86.88
2022-11-07T11:24:27.308Z,86.83
2022-11-07T11:25:27.300Z,85.92
2022-11-07T11:26:27.251Z,86.02
2022-11-07T11:27:27.281Z,86.02
2022-11-07T11:28:27.278Z,85.72
2022-11-07T11:29:27.264Z,85.82
2022-11-07T11:30:27.517Z,85.82
2022-11-07T11:31:27.210Z,85.52
2022-11-07T11:32:28.058Z,85.31
2022-11-07T11:33:27.182Z,85.21
2022-11-07T11:34:27.189Z,85.31
2022-11-07T11:35:27.175Z,85.31
2022-11-07T11:36:27.285Z,85.21
2022-11-07T11:37:28.098Z,85.31
2022-11-07T11:38:27.143Z,85.11
2022-11-07T11:39:27.132Z,85.07
2022-11-07T11:40:27.147Z,84.60
2022-11-07T11:41:27.190Z,84.70
2022-11-07T11:42:27.085Z,84.66
2022-11-07T11:43:27.071Z,84.46
2022-11-07T11:44:27.061Z,84.16
2022-11-07T11:45:27.044Z,83.95
2022-11-07T11:46:27.025Z,83.85
2022-11-07T11:47:30.320Z,84.05
2022-11-07T11:48:28.194Z,84.16
2022-11-07T11:49:27.027Z,84.26
2022-11-07T11:50:26.992Z,84.36
2022-11-07T11:51:28.420Z,84.05
2022-11-07T11:52:26.971Z,84.05
2022-11-07T11:53:26.972Z,84.05
2022-11-07T11:54:26.996Z,84.05
2022-11-07T11:55:26.933Z,84.16
2022-11-07T11:56:26.968Z,84.36
2022-11-07T11:57:26.909Z,84.36
2022-11-07T11:58:26.903Z,84.16
2022-11-07T11:59:26.888Z,83.75
2022-11-07T12:00:26.857Z,83.65
2022-11-07T12:01:26.885Z,83.45
2022-11-07T12:02:26.979Z,83.34
2022-11-07T12:03:26.839Z,83.04
2022-11-07T12:04:26.828Z,82.80
2022-11-07T12:05:26.859Z,82.80
2022-11-07T12:06:26.825Z,82.50
2022-11-07T12:07:26.819Z,82.29
2022-11-07T12:08:26.796Z,82.15
2022-11-07T12:09:26.826Z,81.95
2022-11-07T12:10:26.774Z,81.20
2022-11-07T12:11:26.742Z,80.59
2022-11-07T12:12:26.748Z,80.59
2022-11-07T12:13:26.767Z,80.49
2022-11-07T12:14:26.718Z,80.59
2022-11-07T12:15:26.727Z,80.29
2022-11-07T12:16:26.705Z,80.19
2022-11-07T12:17:26.743Z,80.05
2022-11-07T12:18:26.720Z,79.85
2022-11-07T12:19:26.661Z,79.74
2022-11-07T12:20:26.646Z,79.74
2022-11-07T12:21:26.643Z,79.74
2022-11-07T12:22:26.652Z,79.85
2022-11-07T12:23:26.663Z,79.64
2022-11-07T12:24:26.599Z,79.44
2022-11-07T12:25:26.605Z,78.73
2022-11-07T12:26:26.613Z,78.53
2022-11-07T12:27:27.303Z,78.63
2022-11-07T12:28:26.569Z,78.73
2022-11-07T12:29:26.562Z,78.73
2022-11-07T12:30:26.527Z,78.63
2022-11-07T12:31:26.539Z,78.63
2022-11-07T12:32:26.517Z,78.83
2022-11-07T12:33:26.523Z,78.93
2022-11-07T12:34:26.482Z,79.03
2022-11-07T12:35:26.485Z,79.03
2022-11-07T12:36:26.513Z,79.03
2022-11-07T12:37:26.523Z,79.03
2022-11-07T12:38:26.457Z,78.83
2022-11-07T12:39:26.442Z,78.33
2022-11-07T12:40:26.415Z,78.33
2022-11-07T12:41:26.408Z,78.42
2022-11-07T12:42:26.458Z,78.53
2022-11-07T12:43:26.377Z,78.93
2022-11-07T12:44:26.385Z,78.63
2022-11-07T12:45:26.372Z,78.53
2022-11-07T12:46:26.364Z,78.33
2022-11-07T12:47:26.343Z,78.53
2022-11-07T12:48:26.349Z,78.42
2022-11-07T12:49:26.580Z,78.22
2022-11-07T12:50:26.547Z,78.73
2022-11-07T12:51:26.341Z,79.03
2022-11-07T12:52:26.392Z,79.34
2022-11-07T12:53:26.309Z,79.38